createdAt,value
2022-09-10T00:00:12.100Z,100594.06
2022-09-10T00:01:18.044Z,100599.25
2022-09-10T00:02:19.624Z,100601.75
2022-09-10T00:03:22.534Z,100601.75
2022-09-10T00:04:24.125Z,100600.09
2022-09-10T00:05:27.637Z,100598.91
2022-09-10T00:06:32.948Z,100598.72
2022-09-10T00:07:35.474Z,100599.75
2022-09-10T00:08:38.091Z,100607.63
2022-09-10T00:09:40.702Z,100596.72
2022-09-10T00:10:44.853Z,100603.78
2022-09-10T00:11:47.667Z,100604.41
2022-09-10T00:12:51.123Z,100599.03
2022-09-10T00:13:54.965Z,100603.41
2022-09-10T00:14:56.491Z,100604.22
2022-09-10T00:15:59.675Z,100602.38
2022-09-10T00:17:01.630Z,100612.97
2022-09-10T00:18:04.195Z,100603.06
2022-09-10T00:19:06.540Z,100603.06
2022-09-10T00:20:10.217Z,100607.41
2022-09-10T00:21:14.546Z,100603.91
2022-09-10T00:22:17.046Z,100603.06
2022-09-10T00:23:21.120Z,100602.03
2022-09-10T00:24:24.086Z,100610.09
2022-09-10T00:25:29.093Z,100604.72
2022-09-10T00:26:35.205Z,100602.88
2022-09-10T00:27:37.064Z,100599.19
2022-09-10T00:28:40.940Z,100601.88
2022-09-10T00:29:42.471Z,100601.69
2022-09-10T00:30:47.269Z,100596.31
2022-09-10T00:31:49.409Z,100595.50
2022-09-10T00:32:52.891Z,100595.50
2022-09-10T00:33:54.680Z,100600.66
2022-09-10T00:34:57.485Z,100598.19
2022-09-10T00:35:59.451Z,100597.34
2022-09-10T00:37:02.222Z,100596.31
2022-09-10T00:38:04.181Z,100595.50
2022-09-10T00:39:09.471Z,100596.31
2022-09-10T00:40:11.497Z,100591.78
2022-09-10T00:41:15.229Z,100601.69
2022-09-10T00:42:18.891Z,100596.31
2022-09-10T00:43:23.932Z,100599.00
2022-09-10T00:45:03.518Z,100601.69
2022-09-10T00:46:06.517Z,100596.66
2022-09-10T00:47:14.389Z,100598.69
2022-09-10T00:48:20.170Z,100600.72
2022-09-10T00:49:26.941Z,100601.53
2022-09-10T00:50:33.160Z,100597.00
2022-09-10T00:51:36.552Z,100606.09
2022-09-10T00:52:40.064Z,100601.53
2022-09-10T00:53:43.199Z,100598.69
2022-09-10T00:54:48.848Z,100598.69
2022-09-10T00:55:54.561Z,100605.75
2022-09-10T00:57:02.418Z,100600.38
2022-09-10T00:58:06.750Z,100602.03
2022-09-10T00:59:12.021Z,100598.53
2022-09-10T01:00:15.972Z,100599.34
2022-09-10T01:01:20.154Z,100604.56
2022-09-10T01:02:22.169Z,100600.38
2022-09-10T01:03:26.192Z,100596.66
2022-09-10T01:04:28.697Z,100595.84
2022-09-10T01:05:31.425Z,100598.34
2022-09-10T01:06:34.855Z,100601.03
2022-09-10T01:07:37.783Z,100596.31
2022-09-10T01:08:39.472Z,100594.66
2022-09-10T01:09:43.115Z,100599.19
2022-09-10T01:10:58.685Z,100592.13
2022-09-10T01:12:15.978Z,100595.66
2022-09-10T01:13:32.928Z,100587.59
2022-09-10T01:14:57.230Z,100592.97
2022-09-10T01:16:09.953Z,100591.28
2022-09-10T01:17:24.324Z,100584.06
2022-09-10T01:18:33.287Z,100590.28
2022-09-10T01:19:59.160Z,100585.91
2022-09-10T01:21:08.720Z,100589.63
2022-09-10T01:22:26.564Z,100586.94
2022-09-10T01:24:04.763Z,100580.72
2022-09-10T01:25:17.049Z,100587.78
2022-09-10T01:26:29.976Z,100585.91
2022-09-10T01:27:41.095Z,100575.16
2022-09-10T01:28:49.258Z,100576.84
2022-09-10T01:29:57.857Z,100577.69
2022-09-10T01:31:11.326Z,100580.19
2022-09-10T01:32:16.928Z,100581.88
2022-09-10T01:33:26.793Z,100579.19
2022-09-10T01:34:33.446Z,100575.66
2022-09-10T01:35:41.266Z,100573.16
2022-09-10T01:36:47.976Z,100583.06
2022-09-10T01:37:54.169Z,100576.00
2022-09-10T01:38:55.985Z,100571.84
2022-09-10T01:40:01.043Z,100572.69
2022-09-10T01:41:02.883Z,100582.59
2022-09-10T01:42:05.560Z,100589.63
2022-09-10T01:43:09.835Z,100583.22
2022-09-10T01:44:42.054Z,100590.47
2022-09-10T01:45:58.245Z,100588.59
2022-09-10T01:47:12.806Z,100590.47
2022-09-10T01:48:42.797Z,100591.28
2022-09-10T01:50:01.630Z,100592.31
2022-09-10T01:51:11.559Z,100589.63
2022-09-10T01:52:26.182Z,100578.91
2022-09-10T01:53:43.933Z,100593.97
2022-09-10T01:55:00.967Z,100582.22
2022-09-10T01:56:16.107Z,100583.06
2022-09-10T01:57:30.413Z,100582.22
2022-09-10T01:58:38.825Z,100579.53
2022-09-10T01:59:49.519Z,100579.53
2022-09-10T02:01:00.007Z,100579.53
2022-09-10T02:02:09.389Z,100580.53
2022-09-10T02:03:17.268Z,100582.22
2022-09-10T02:04:21.552Z,100581.38
2022-09-10T02:05:24.503Z,100575.16
2022-09-10T02:06:29.486Z,100585.91
2022-09-10T02:07:34.153Z,100580.53
2022-09-10T02:08:39.457Z,100580.53
2022-09-10T02:09:42.840Z,100580.53
2022-09-10T02:10:50.336Z,100581.38
2022-09-10T02:11:54.674Z,100569.81
2022-09-10T02:12:56.340Z,100575.00
2022-09-10T02:14:00.216Z,100574.00
2022-09-10T02:15:02.202Z,100571.47
2022-09-10T02:16:09.233Z,100578.53
2022-09-10T02:17:11.447Z,100580.19
2022-09-10T02:18:14.024Z,100578.53
2022-09-10T02:19:16.775Z,100572.31
2022-09-10T02:20:19.743Z,100574.00
2022-09-10T02:21:21.428Z,100574.81
2022-09-10T02:22:24.664Z,100569.44
2022-09-10T02:23:31.516Z,100577.34
2022-09-10T02:24:34.074Z,100578.19
2022-09-10T02:25:37.288Z,100578.19
2022-09-10T02:26:43.454Z,100577.19
2022-09-10T02:27:45.301Z,100572.81
2022-09-10T02:28:49.526Z,100576.50
2022-09-10T02:29:52.480Z,100577.34
2022-09-10T02:30:55.078Z,100577.34
2022-09-10T02:31:56.640Z,100576.50
2022-09-10T02:32:59.214Z,100576.50
2022-09-10T02:34:03.034Z,100577.34
2022-09-10T02:35:06.304Z,100572.81
2022-09-10T02:36:07.947Z,100573.66
2022-09-10T02:37:10.964Z,100574.66
2022-09-10T02:38:12.627Z,100574.00
2022-09-10T02:39:15.183Z,100580.19
2022-09-10T02:40:19.271Z,100578.53
2022-09-10T02:41:23.926Z,100578.53
2022-09-10T02:42:26.219Z,100583.22
2022-09-10T02:43:29.227Z,100580.53
2022-09-10T02:44:31.033Z,100583.22
2022-09-10T02:45:37.491Z,100578.91
2022-09-10T02:46:39.074Z,100578.91
2022-09-10T02:47:41.735Z,100574.53
2022-09-10T02:48:43.363Z,100584.25
2022-09-10T02:49:46.833Z,100582.59
2022-09-10T02:50:48.457Z,100577.22
2022-09-10T02:51:51.516Z,100578.06
2022-09-10T02:52:53.750Z,100578.06
2022-09-10T02:53:56.374Z,100584.25
2022-09-10T02:54:57.942Z,100576.22
2022-09-10T02:56:00.963Z,100573.31
2022-09-10T02:57:02.495Z,100583.06
2022-09-10T02:58:05.065Z,100577.69
2022-09-10T02:59:06.591Z,100575.84
2022-09-10T03:00:10.727Z,100579.53
2022-09-10T03:01:18.327Z,100576.84
2022-09-10T03:02:21.081Z,100582.22
2022-09-10T03:03:23.237Z,100575.16
2022-09-10T03:04:26.011Z,100570.84
2022-09-10T03:05:27.550Z,100573.53
2022-09-10T03:06:30.074Z,100575.16
2022-09-10T03:07:32.075Z,100580.53
2022-09-10T03:08:35.598Z,100582.22
2022-09-10T03:09:37.134Z,100582.88
2022-09-10T03:10:39.699Z,100582.06
2022-09-10T03:11:41.730Z,100583.06
2022-09-10T03:12:45.588Z,100584.91
2022-09-10T03:13:47.810Z,100575.16
2022-09-10T03:14:50.332Z,100582.22
2022-09-10T03:15:52.770Z,100587.59
2022-09-10T03:16:56.796Z,100581.38
2022-09-10T03:17:58.333Z,100581.38
2022-09-10T03:19:00.889Z,100584.91
2022-09-10T03:20:03.813Z,100582.22
2022-09-10T03:21:10.852Z,100577.69
2022-09-10T03:22:12.395Z,100576.84
2022-09-10T03:23:14.946Z,100579.72
2022-09-10T03:24:16.555Z,100580.72
2022-09-10T03:25:19.358Z,100571.84
2022-09-10T03:26:22.341Z,100586.94
2022-09-10T03:27:26.106Z,100577.22
2022-09-10T03:28:28.236Z,100575.53
2022-09-10T03:29:30.879Z,100584.44
2022-09-10T03:30:32.693Z,100575.53
2022-09-10T03:31:35.955Z,100584.44
2022-09-10T03:32:39.056Z,100574.53
2022-09-10T03:33:42.046Z,100579.91
2022-09-10T03:34:44.167Z,100573.03
2022-09-10T03:35:46.653Z,100579.25
2022-09-10T03:36:49.427Z,100575.53
2022-09-10T03:37:51.026Z,100572.00
2022-09-10T03:38:53.667Z,100576.56
2022-09-10T03:39:55.308Z,100577.56
2022-09-10T03:40:58.024Z,100574.88
2022-09-10T03:41:59.569Z,100578.56
2022-09-10T03:43:02.778Z,100574.88
2022-09-10T03:44:05.103Z,100574.69
2022-09-10T03:45:09.104Z,100575.53
2022-09-10T03:46:11.869Z,100570.16
2022-09-10T03:47:14.370Z,100574.69
2022-09-10T03:48:18.478Z,100571.84
2022-09-10T03:49:20.984Z,100574.53
2022-09-10T03:50:22.728Z,100575.53
2022-09-10T03:51:25.317Z,100571.84
2022-09-10T03:52:27.055Z,100583.41
2022-09-10T03:53:29.539Z,100577.22
2022-09-10T03:54:31.064Z,100578.06
2022-09-10T03:55:34.142Z,100578.22
2022-09-10T03:56:35.812Z,100575.53
2022-09-10T03:57:38.859Z,100582.59
2022-09-10T03:58:40.566Z,100580.06
2022-09-10T03:59:43.210Z,100580.91
2022-09-10T04:00:46.748Z,100574.53
2022-09-10T04:01:50.634Z,100580.72
2022-09-10T04:02:53.745Z,100582.59
2022-09-10T04:03:58.182Z,100577.22
2022-09-10T04:05:00.089Z,100580.53
2022-09-10T04:06:03.028Z,100579.72
2022-09-10T04:07:05.105Z,100581.56
2022-09-10T04:08:09.795Z,100571.84
2022-09-10T04:09:11.826Z,100573.69
2022-09-10T04:10:14.567Z,100575.53
2022-09-10T04:11:16.288Z,100575.53
2022-09-10T04:12:18.814Z,100574.88
2022-09-10T04:13:20.380Z,100575.88
2022-09-10T04:14:22.875Z,100576.91
2022-09-10T04:15:26.152Z,100573.38
2022-09-10T04:16:28.680Z,100572.53
2022-09-10T04:17:30.248Z,100575.22
2022-09-10T04:18:34.976Z,100572.53
2022-09-10T04:19:38.138Z,100573.38
2022-09-10T04:20:40.821Z,100573.38
2022-09-10T04:21:42.373Z,100566.34
2022-09-10T04:22:44.834Z,100575.22
2022-09-10T04:23:47.576Z,100576.22
2022-09-10T04:24:50.090Z,100569.19
2022-09-10T04:25:52.266Z,100569.19
2022-09-10T04:26:54.786Z,100570.38
2022-09-10T04:27:56.352Z,100576.59
2022-09-10T04:28:59.239Z,100576.59
2022-09-10T04:30:00.760Z,100572.91
2022-09-10T04:31:03.251Z,100571.22
2022-09-10T04:32:05.073Z,100574.91
2022-09-10T04:33:08.058Z,100574.25
2022-09-10T04:34:10.463Z,100582.31
2022-09-10T04:35:15.412Z,100585.16
2022-09-10T04:36:17.158Z,100573.63
2022-09-10T04:37:19.809Z,100575.25
2022-09-10T04:38:21.400Z,100573.63
2022-09-10T04:39:23.877Z,100579.97
2022-09-10T04:40:27.112Z,100577.28
2022-09-10T04:41:29.634Z,100575.63
2022-09-10T04:42:32.777Z,100579.34
2022-09-10T04:43:35.569Z,100580.34
2022-09-10T04:44:37.233Z,100585.03
2022-09-10T04:45:41.458Z,100580.84
2022-09-10T04:46:43.352Z,100580.00
2022-09-10T04:47:46.595Z,100589.94
2022-09-10T04:48:48.164Z,100584.56
2022-09-10T04:49:50.669Z,100583.72
2022-09-10T04:51:14.646Z,100581.03
2022-09-10T04:52:17.894Z,100582.88
2022-09-10T04:53:19.734Z,100585.72
2022-09-10T04:54:22.283Z,100580.34
2022-09-10T04:55:25.995Z,100586.75
2022-09-10T04:56:28.606Z,100590.44
2022-09-10T04:57:30.174Z,100589.44
2022-09-10T04:58:37.926Z,100592.28
2022-09-10T04:59:40.342Z,100588.59
2022-09-10T05:00:42.907Z,100597.66
2022-09-10T05:01:44.480Z,100588.75
2022-09-10T05:02:47.376Z,100591.44
2022-09-10T05:03:48.999Z,100593.13
2022-09-10T05:04:51.666Z,100589.78
2022-09-10T05:05:54.575Z,100594.13
2022-09-10T05:06:57.690Z,100598.50
2022-09-10T05:08:00.102Z,100589.44
2022-09-10T05:09:03.784Z,100598.50
2022-09-10T05:10:10.417Z,100592.28
2022-09-10T05:11:13.083Z,100601.34
2022-09-10T05:12:15.337Z,100600.53
2022-09-10T05:13:18.082Z,100601.53
2022-09-10T05:14:19.629Z,100599.84
2022-09-10T05:15:24.828Z,100599.84
2022-09-10T05:16:26.429Z,100601.66
2022-09-10T05:17:29.336Z,100597.31
2022-09-10T05:18:30.917Z,100600.00
2022-09-10T05:19:33.646Z,100601.84
2022-09-10T05:20:35.638Z,100597.47
2022-09-10T05:21:39.577Z,100600.16
2022-09-10T05:22:42.175Z,100597.47
2022-09-10T05:23:45.021Z,100596.63
2022-09-10T05:24:46.555Z,100599.31
2022-09-10T05:25:49.584Z,100602.84
2022-09-10T05:26:51.131Z,100599.31
2022-09-10T05:27:53.675Z,100597.47
2022-09-10T05:28:55.481Z,100600.00
2022-09-10T05:29:58.381Z,100601.66
2022-09-10T05:30:59.915Z,100603.38
2022-09-10T05:32:02.771Z,100604.22
2022-09-10T05:33:04.462Z,100603.38
2022-09-10T05:34:08.319Z,100604.22
2022-09-10T05:35:10.560Z,100606.06
2022-09-10T05:36:13.120Z,100599.69
2022-09-10T05:37:16.542Z,100612.91
2022-09-10T05:38:19.269Z,100605.06
2022-09-10T05:39:20.827Z,100606.91
2022-09-10T05:40:23.403Z,100609.59
2022-09-10T05:41:25.139Z,100611.25
2022-09-10T05:42:27.845Z,100603.38
2022-09-10T05:43:29.514Z,100610.44
2022-09-10T05:44:32.027Z,100608.59
2022-09-10T05:45:33.771Z,100607.56
2022-09-10T05:46:36.409Z,100611.25
2022-09-10T05:47:38.038Z,100605.06
2022-09-10T05:48:41.752Z,100602.19
2022-09-10T05:49:43.581Z,100613.75
2022-09-10T05:50:46.749Z,100614.59
2022-09-10T05:51:48.288Z,100610.06
2022-09-10T05:52:52.329Z,100612.75
2022-09-10T05:53:53.903Z,100614.59
2022-09-10T05:54:56.815Z,100617.94
2022-09-10T05:55:58.452Z,100620.47
2022-09-10T05:57:00.937Z,100612.22
2022-09-10T05:58:02.820Z,100613.06
2022-09-10T05:59:05.511Z,100616.59
2022-09-10T06:00:08.745Z,100615.75
2022-09-10T06:01:15.310Z,100615.59
2022-09-10T06:02:23.203Z,100627.97
2022-09-10T06:03:26.546Z,100619.28
2022-09-10T06:04:29.028Z,100624.66
2022-09-10T06:05:30.544Z,100624.66
2022-09-10T06:06:33.270Z,100623.81
2022-09-10T06:07:34.866Z,100622.97
2022-09-10T06:08:39.873Z,100626.31
2022-09-10T06:09:42.455Z,100627.31
2022-09-10T06:10:56.669Z,100635.38
2022-09-10T06:11:58.197Z,100631.00
2022-09-10T06:13:00.904Z,100624.16
2022-09-10T06:14:02.448Z,100632.38
2022-09-10T06:15:07.095Z,100632.75
2022-09-10T06:16:08.855Z,100632.91
2022-09-10T06:17:12.181Z,100624.97
2022-09-10T06:18:13.711Z,100627.00
2022-09-10T06:19:16.402Z,100634.22
2022-09-10T06:20:17.944Z,100634.22
2022-09-10T06:21:24.955Z,100635.91
2022-09-10T06:22:30.819Z,100636.06
2022-09-10T06:23:33.381Z,100631.72
2022-09-10T06:24:36.598Z,100635.41
2022-09-10T06:25:39.116Z,100633.72
2022-09-10T06:26:41.478Z,100642.81
2022-09-10T06:27:44.407Z,100636.75
2022-09-10T06:28:46.377Z,100641.13
2022-09-10T06:29:48.865Z,100638.44
2022-09-10T06:30:50.590Z,100636.59
2022-09-10T06:31:53.099Z,100641.13
2022-09-10T06:32:54.640Z,100636.75
2022-09-10T06:33:57.192Z,100643.16
2022-09-10T06:34:58.719Z,100644.81
2022-09-10T06:36:05.934Z,100641.47
2022-09-10T06:37:07.431Z,100647.69
2022-09-10T06:38:09.916Z,100646.00
2022-09-10T06:39:12.407Z,100643.31
2022-09-10T06:40:15.613Z,100646.00
2022-09-10T06:41:19.347Z,100648.50
2022-09-10T06:42:20.915Z,100645.84
2022-09-10T06:43:25.920Z,100646.47
2022-09-10T06:44:29.164Z,100641.97
2022-09-10T06:45:32.338Z,100642.81
2022-09-10T06:47:17.841Z,100647.81
2022-09-10T06:49:19.196Z,100647.81
2022-09-10T06:50:20.827Z,100645.97
2022-09-10T06:51:23.346Z,100651.16
2022-09-10T06:52:24.895Z,100654.50
2022-09-10T06:53:29.805Z,100650.16
2022-09-10T06:54:32.348Z,100649.13
2022-09-10T06:55:36.345Z,100656.22
2022-09-10T06:56:38.840Z,100654.38
2022-09-10T06:57:40.367Z,100653.38
2022-09-10T06:58:42.861Z,100656.72
2022-09-10T06:59:44.991Z,100659.25
2022-09-10T07:00:47.972Z,100660.88
2022-09-10T07:01:50.511Z,100663.41
2022-09-10T07:02:52.369Z,100663.41
2022-09-10T07:03:57.481Z,100663.41
2022-09-10T07:04:58.989Z,100661.56
2022-09-10T07:06:04.178Z,100660.53
2022-09-10T07:07:06.753Z,100665.09
2022-09-10T07:08:08.357Z,100661.56
2022-09-10T07:09:10.911Z,100658.88
2022-09-10T07:10:12.467Z,100658.88
2022-09-10T07:11:17.010Z,100661.72
2022-09-10T07:12:18.511Z,100662.56
2022-09-10T07:13:21.043Z,100664.59
2022-09-10T07:14:22.554Z,100660.88
2022-09-10T07:15:25.564Z,100664.59
2022-09-10T07:16:28.395Z,100659.25
2022-09-10T07:17:32.050Z,100657.56
2022-09-10T07:18:33.931Z,100659.75
2022-09-10T07:19:38.379Z,100659.75
2022-09-10T07:20:40.277Z,100658.91
2022-09-10T07:21:42.811Z,100661.59
2022-09-10T07:22:44.361Z,100668.63
2022-09-10T07:23:48.377Z,100658.91
2022-09-10T07:24:51.353Z,100656.38
2022-09-10T07:25:53.850Z,100658.03
2022-09-10T07:26:57.561Z,100672.31
2022-09-10T07:28:01.172Z,100666.94
2022-09-10T07:29:02.710Z,100664.25
2022-09-10T07:30:05.984Z,100665.94
2022-09-10T07:31:13.090Z,100664.94
2022-09-10T07:32:15.646Z,100666.59
2022-09-10T07:33:17.159Z,100669.28
2022-09-10T07:34:20.200Z,100664.59
2022-09-10T07:35:22.763Z,100666.59
2022-09-10T07:36:25.005Z,100669.13
2022-09-10T07:37:27.499Z,100671.63
2022-09-10T07:38:29.013Z,100672.31
2022-09-10T07:39:31.595Z,100665.91
2022-09-10T07:40:33.700Z,100669.09
2022-09-10T07:41:36.742Z,100671.44
2022-09-10T07:42:39.675Z,100676.44
2022-09-10T07:43:43.679Z,100673.25
2022-09-10T07:44:45.241Z,100676.59
2022-09-10T07:45:47.796Z,100668.22
2022-09-10T07:46:49.331Z,100673.25
2022-09-10T07:47:51.861Z,100670.19
2022-09-10T07:48:55.560Z,100674.38
2022-09-10T07:49:58.069Z,100680.25
2022-09-10T07:51:03.787Z,100678.22
2022-09-10T07:52:07.177Z,100676.38
2022-09-10T07:53:08.808Z,100678.88
2022-09-10T07:54:11.313Z,100680.53
2022-09-10T07:55:13.885Z,100681.22
2022-09-10T07:56:16.446Z,100675.84
2022-09-10T07:57:18.077Z,100680.38
2022-09-10T07:58:22.187Z,100679.53
2022-09-10T07:59:23.886Z,100668.97
2022-09-10T08:00:26.647Z,100679.69
2022-09-10T08:01:28.400Z,100677.84
2022-09-10T08:02:31.033Z,100671.28
2022-09-10T08:03:33.950Z,100668.44
2022-09-10T08:04:37.472Z,100680.69
2022-09-10T08:05:41.960Z,100675.78
2022-09-10T08:06:45.007Z,100676.13
2022-09-10T08:07:47.516Z,100675.78
2022-09-10T08:08:49.050Z,100677.91
2022-09-10T08:09:51.545Z,100678.41
2022-09-10T08:10:54.054Z,100673.34
2022-09-10T08:11:55.703Z,100672.63
2022-09-10T08:12:59.356Z,100675.44
2022-09-10T08:14:03.230Z,100672.06
2022-09-10T08:15:06.077Z,100670.34
2022-09-10T08:16:09.709Z,100674.16
2022-09-10T08:17:11.268Z,100671.78
2022-09-10T08:18:14.647Z,100665.22
2022-09-10T08:19:17.988Z,100671.91
2022-09-10T08:20:20.516Z,100671.91
2022-09-10T08:21:23.107Z,100669.22
2022-09-10T08:22:25.072Z,100672.72
2022-09-10T08:23:28.954Z,100674.59
2022-09-10T08:24:31.184Z,100673.56
2022-09-10T08:25:34.641Z,100676.09
2022-09-10T08:26:36.280Z,100677.09
2022-09-10T08:27:38.758Z,100681.47
2022-09-10T08:28:42.732Z,100683.16
2022-09-10T08:29:46.719Z,100675.09
2022-09-10T08:30:57.095Z,100673.22
2022-09-10T08:31:59.830Z,100676.09
2022-09-10T08:33:01.412Z,100681.47
2022-09-10T08:34:03.992Z,100681.47
2022-09-10T08:35:05.953Z,100681.47
2022-09-10T08:36:10.504Z,100676.09
2022-09-10T08:37:12.435Z,100672.41
2022-09-10T08:38:14.944Z,100668.66
2022-09-10T08:39:16.489Z,100671.34
2022-09-10T08:40:19.114Z,100670.34
2022-09-10T08:41:31.162Z,100673.69
2022-09-10T08:42:40.359Z,100667.47
2022-09-10T08:43:48.043Z,100671.00
2022-09-10T08:44:55.167Z,100676.22
2022-09-10T08:45:59.418Z,100678.91
2022-09-10T08:47:12.952Z,100669.63
2022-09-10T08:48:19.060Z,100673.16
2022-09-10T08:49:31.419Z,100669.63
2022-09-10T08:50:41.022Z,100666.94
2022-09-10T08:51:48.532Z,100667.13
2022-09-10T08:52:56.455Z,100662.94
2022-09-10T08:54:02.593Z,100666.66
2022-09-10T08:55:14.869Z,100667.03
2022-09-10T08:56:21.301Z,100669.72
2022-09-10T08:57:28.096Z,100673.56
2022-09-10T08:58:44.951Z,100674.78
2022-09-10T08:59:52.150Z,100681.16
2022-09-10T09:00:59.962Z,100668.06
2022-09-10T09:02:26.287Z,100681.88
2022-09-10T09:03:41.160Z,100677.88
2022-09-10T09:04:45.907Z,100680.09
2022-09-10T09:05:50.584Z,100673.41
2022-09-10T09:06:57.356Z,100670.22
2022-09-10T09:08:00.357Z,100672.25
2022-09-10T09:09:03.907Z,100672.59
2022-09-10T09:10:19.155Z,100667.38
2022-09-10T09:11:34.228Z,100667.53
2022-09-10T09:12:45.743Z,100680.34
2022-09-10T09:13:58.955Z,100676.16
2022-09-10T09:15:09.201Z,100672.16
2022-09-10T09:16:26.539Z,100666.28
2022-09-10T09:17:46.127Z,100663.97
2022-09-10T09:19:03.667Z,100660.63
2022-09-10T09:20:17.240Z,100659.94
2022-09-10T09:21:26.516Z,100664.66
2022-09-10T09:22:39.794Z,100670.41
2022-09-10T09:24:11.705Z,100660.81
2022-09-10T09:25:25.303Z,100656.63
2022-09-10T09:26:34.729Z,100657.00
2022-09-10T09:27:42.164Z,100651.97
2022-09-10T09:28:48.456Z,100664.75
2022-09-10T09:29:57.285Z,100659.38
2022-09-10T09:31:06.334Z,100661.38
2022-09-10T09:32:17.132Z,100662.72
2022-09-10T09:33:22.524Z,100668.94
2022-09-10T09:34:32.443Z,100667.09
2022-09-10T09:35:40.113Z,100662.38
2022-09-10T09:36:46.961Z,100665.72
2022-09-10T09:37:50.509Z,100672.41
2022-09-10T09:38:52.551Z,100676.78
2022-09-10T09:40:08.086Z,100672.53
2022-09-10T09:41:21.008Z,100662.59
2022-09-10T09:42:29.876Z,100664.56
2022-09-10T09:43:42.391Z,100661.31
2022-09-10T09:44:53.850Z,100664.69
2022-09-10T09:45:59.374Z,100663.84
2022-09-10T09:47:01.172Z,100665.91
2022-09-10T09:48:07.466Z,100662.53
2022-09-10T09:49:13.742Z,100666.41
2022-09-10T09:50:18.294Z,100658.50
2022-09-10T09:51:20.985Z,100659.91
2022-09-10T09:52:25.311Z,100662.94
2022-09-10T09:53:28.452Z,100655.25
2022-09-10T09:55:02.987Z,100662.28
2022-09-10T09:56:00.759Z,100661.63
2022-09-10T09:57:02.856Z,100662.63
2022-09-10T09:58:29.395Z,100660.94
2022-09-10T09:59:34.632Z,100655.94
2022-09-10T10:00:37.758Z,100654.28
2022-09-10T10:01:43.242Z,100663.34
2022-09-10T10:02:46.935Z,100656.28
2022-09-10T10:03:54.376Z,100657.97
2022-09-10T10:05:04.683Z,100657.97
2022-09-10T10:06:09.805Z,100657.31
2022-09-10T10:07:11.878Z,100662.50
2022-09-10T10:08:30.624Z,100655.28
2022-09-10T10:09:33.579Z,100656.63
2022-09-10T10:10:36.151Z,100647.09
2022-09-10T10:11:42.823Z,100649.28
2022-09-10T10:12:50.617Z,100653.53
2022-09-10T10:13:52.849Z,100653.88
2022-09-10T10:14:55.391Z,100662.09
2022-09-10T10:16:13.517Z,100662.78
2022-09-10T10:17:31.137Z,100660.31
2022-09-10T10:18:33.648Z,100665.19
2022-09-10T10:19:38.380Z,100658.47
2022-09-10T10:20:44.434Z,100661.31
2022-09-10T10:21:47.259Z,100659.66
2022-09-10T10:22:49.766Z,100658.81
2022-09-10T10:23:51.320Z,100653.81
2022-09-10T10:24:54.762Z,100655.81
2022-09-10T10:25:56.468Z,100660.34
2022-09-10T10:26:59.681Z,100664.91
2022-09-10T10:28:01.939Z,100665.91
2022-09-10T10:29:07.539Z,100657.19
2022-09-10T10:30:22.564Z,100654.50
2022-09-10T10:31:25.709Z,100657.00
2022-09-10T10:32:50.712Z,100660.34
2022-09-10T10:33:59.849Z,100663.34
2022-09-10T10:35:20.193Z,100663.84
2022-09-10T10:36:29.471Z,100661.66
2022-09-10T10:37:41.380Z,100661.13
2022-09-10T10:38:50.211Z,100665.13
2022-09-10T10:40:14.009Z,100659.25
2022-09-10T10:41:44.637Z,100664.06
2022-09-10T10:42:59.116Z,100663.06
2022-09-10T10:44:25.169Z,100657.34
2022-09-10T10:45:37.518Z,100661.03
2022-09-10T10:46:50.185Z,100663.06
2022-09-10T10:47:57.080Z,100661.38
2022-09-10T10:49:15.204Z,100667.59
2022-09-10T10:50:28.625Z,100665.09
2022-09-10T10:51:42.110Z,100674.16
2022-09-10T10:52:57.135Z,100682.22
2022-09-10T10:54:14.550Z,100675.66
2022-09-10T10:55:23.361Z,100675.50
2022-09-10T10:56:31.778Z,100679.84
2022-09-10T10:57:53.487Z,100682.16
2022-09-10T10:59:23.350Z,100678.31
2022-09-10T11:00:27.501Z,100682.66
2022-09-10T11:01:34.951Z,100679.97
2022-09-10T11:02:44.191Z,100677.47
2022-09-10T11:03:55.479Z,100673.31
2022-09-10T11:05:02.787Z,100681.72
2022-09-10T11:06:12.087Z,100680.38
2022-09-10T11:07:22.062Z,100674.69
2022-09-10T11:08:29.226Z,100674.03
2022-09-10T11:09:38.965Z,100679.75
2022-09-10T11:10:46.363Z,100677.22
2022-09-10T11:11:55.621Z,100666.84
2022-09-10T11:13:06.654Z,100675.94
2022-09-10T11:14:20.401Z,100681.94
2022-09-10T11:15:30.999Z,100679.25
2022-09-10T11:16:40.448Z,100683.44
2022-09-10T11:17:47.408Z,100675.22
2022-09-10T11:18:54.071Z,100671.50
2022-09-10T11:20:27.231Z,100680.25
2022-09-10T11:21:35.634Z,100676.06
2022-09-10T11:22:45.195Z,100675.03
2022-09-10T11:23:51.488Z,100678.56
2022-09-10T11:25:00.420Z,100674.88
2022-09-10T11:26:07.512Z,100685.75
2022-09-10T11:27:14.250Z,100682.53
2022-09-10T11:28:20.028Z,100675.63
2022-09-10T11:29:33.598Z,100681.16
2022-09-10T11:30:41.010Z,100673.38
2022-09-10T11:31:46.974Z,100676.38
2022-09-10T11:32:57.124Z,100666.56
2022-09-10T11:34:49.132Z,100666.22
2022-09-10T11:36:01.092Z,100668.66
2022-09-10T11:37:15.247Z,100670.84
2022-09-10T11:38:24.669Z,100670.13
2022-09-10T11:39:34.923Z,100667.06
2022-09-10T11:40:43.324Z,100667.06
2022-09-10T11:41:47.985Z,100671.44
2022-09-10T11:42:56.272Z,100671.06
2022-09-10T11:44:10.891Z,100664.78
2022-09-10T11:45:22.889Z,100663.88
2022-09-10T11:46:29.793Z,100665.19
2022-09-10T11:47:38.010Z,100672.72
2022-09-10T11:48:47.222Z,100675.88
2022-09-10T11:49:54.111Z,100673.66
2022-09-10T11:51:00.915Z,100673.97
2022-09-10T11:52:03.056Z,100678.13
2022-09-10T11:53:07.382Z,100682.16
2022-09-10T11:54:14.508Z,100679.09
2022-09-10T11:55:17.726Z,100678.53
2022-09-10T11:56:52.833Z,100676.13
2022-09-10T11:58:02.500Z,100678.13
2022-09-10T11:59:14.441Z,100686.31
2022-09-10T12:00:18.807Z,100680.84
2022-09-10T12:01:31.044Z,100684.81
2022-09-10T12:03:13.631Z,100681.13
2022-09-10T12:04:40.106Z,100681.47
2022-09-10T12:05:57.396Z,100680.38
2022-09-10T12:07:10.073Z,100682.22
2022-09-10T12:08:29.416Z,100679.69
2022-09-10T12:09:42.732Z,100676.47
2022-09-10T12:10:55.464Z,100675.94
2022-09-10T12:12:06.006Z,100678.88
2022-09-10T12:13:10.319Z,100680.84
2022-09-10T12:14:16.204Z,100680.09
2022-09-10T12:15:21.749Z,100684.72
2022-09-10T12:16:32.583Z,100682.13
2022-09-10T12:17:39.703Z,100679.53
2022-09-10T12:18:44.961Z,100684.34
2022-09-10T12:19:50.677Z,100684.63
2022-09-10T12:20:56.912Z,100680.53
2022-09-10T12:22:03.978Z,100677.06
2022-09-10T12:23:06.553Z,100683.63
2022-09-10T12:24:26.641Z,100685.75
2022-09-10T12:25:34.592Z,100678.50
2022-09-10T12:26:42.645Z,100687.81
2022-09-10T12:27:47.099Z,100681.78
2022-09-10T12:29:01.395Z,100681.47
2022-09-10T12:31:02.601Z,100683.44
2022-09-10T12:32:38.378Z,100675.91
2022-09-10T12:34:07.488Z,100679.81